Time;durP1;ratioP1;P1;durP2;ratioP2;P2;SDS_P1;SDS_P2;PMS_P1;PMS_P2;Temp;Humidity;BMP_temperature;BMP_pressure;BME280_temperature;BME280_humidity;BME280_pressure;Samples;Min_cycle;Max_cycle;Signal;HPM_P1;HPM_P2
2022/06/30 10:38:58;;;;;;;68.63;3.47;;;29.30;1.00;;;;;;6308159;22;20507;-85
2022/06/30 10:41:24;;;;;;;71.10;4.67;;;29.60;1.00;;;;;;6287319;22;20762;-83
2022/06/30 10:44:05;;;;;;;70.90;4.83;;;29.60;1.00;;;;;;6318308;22;20365;-84
2022/06/30 10:46:57;;;;;;;68.23;3.90;;;29.60;1.00;;;;;;6316494;22;20358;-83
2022/06/30 10:49:27;;;;;;;68.57;3.73;;;29.70;1.00;;;;;;6316879;22;20379;-83
2022/06/30 10:52:17;;;;;;;69.80;4.47;;;29.70;1.00;;;;;;6316337;22;20403;-85
2022/06/30 10:54:45;;;;;;;68.77;3.60;;;29.70;1.00;;;;;;6316738;22;20346;-83
2022/06/30 10:57:12;;;;;;;69.90;4.00;;;29.70;1.00;;;;;;6289339;22;20433;-83
2022/06/30 10:59:42;;;;;;;73.20;3.67;;;29.70;1.00;;;;;;6290409;22;20361;-83
2022/06/30 11:02:08;;;;;;;69.77;3.67;;;29.60;1.00;;;;;;6315626;22;20361;-82
2022/06/30 11:04:35;;;;;;;68.27;3.80;;;29.60;1.00;;;;;;6316392;22;20380;-82
2022/06/30 11:07:12;;;;;;;68.83;3.73;;;29.50;1.00;;;;;;6316555;22;20389;-83
2022/06/30 11:09:44;;;;;;;71.23;3.90;;;29.20;1.00;;;;;;6288581;22;20381;-83
2022/06/30 11:12:15;;;;;;;69.27;4.33;;;29.10;1.00;;;;;;6288291;22;20447;-82
2022/06/30 11:14:48;;;;;;;71.60;5.40;;;29.20;1.00;;;;;;6317329;22;20376;-82
2022/06/30 11:17:16;;;;;;;68.90;3.80;;;29.10;1.00;;;;;;6316534;22;20372;-83
2022/06/30 11:19:42;;;;;;;73.67;4.77;;;29.00;1.00;;;;;;6288940;22;20403;-85
2022/06/30 11:22:08;;;;;;;70.17;4.20;;;28.90;1.00;;;;;;6316735;22;20416;-83
2022/06/30 11:24:40;;;;;;;71.20;3.90;;;28.70;1.00;;;;;;6316860;22;20372;-83
2022/06/30 11:27:19;;;;;;;67.97;4.03;;;28.70;1.00;;;;;;6315187;22;20389;-86
2022/06/30 11:29:49;;;;;;;69.27;4.20;;;28.50;1.00;;;;;;6316841;22;20354;-86
2022/06/30 11:32:15;;;;;;;72.07;5.27;;;28.60;1.00;;;;;;6315482;22;20710;-86
2022/06/30 11:34:41;;;;;;;69.97;4.53;;;28.90;1.00;;;;;;6317050;22;20377;-86
2022/06/30 11:37:10;;;;;;;72.63;3.87;;;29.30;1.00;;;;;;6313787;22;20171;-83
2022/06/30 11:39:36;;;;;;;74.17;4.40;;;29.70;1.00;;;;;;6285583;22;20385;-83
2022/06/30 11:42:11;;;;;;;70.03;3.53;;;29.90;1.00;;;;;;6315114;22;20418;-81
2022/06/30 11:44:39;;;;;;;68.30;3.40;;;30.00;1.00;;;;;;6314308;22;20349;-81
2022/06/30 11:47:06;;;;;;;71.10;4.40;;;29.90;1.00;;;;;;6312707;22;20480;-81
2022/06/30 11:49:46;;;;;;;74.30;4.67;;;29.60;1.00;;;;;;6314549;22;20698;-80
2022/06/30 11:52:16;;;;;;;67.80;3.57;;;29.60;1.00;;;;;;6286723;22;20462;-81
2022/06/30 11:54:56;;;;;;;73.67;5.13;;;29.80;1.00;;;;;;6314003;22;20377;-81
2022/06/30 11:57:30;;;;;;;68.77;6.00;;;30.20;1.00;;;;;;6313191;22;20921;-81
2022/06/30 12:00:00;;;;;;;71.00;8.93;;;30.10;1.00;;;;;;6312893;22;20342;-81
2022/06/30 12:02:26;;;;;;;70.27;6.57;;;30.20;1.00;;;;;;6313170;22;20366;-81
2022/06/30 12:04:54;;;;;;;69.80;8.07;;;30.30;1.00;;;;;;6314833;22;20370;-81
2022/06/30 12:07:21;;;;;;;70.37;9.47;;;30.30;1.00;;;;;;6314528;22;20472;-81
2022/06/30 12:09:48;;;;;;;72.80;10.10;;;30.10;1.00;;;;;;6286741;22;20377;-81
2022/06/30 12:12:17;;;;;;;69.77;9.63;;;30.30;1.00;;;;;;6313540;22;20776;-81
2022/06/30 12:14:45;;;;;;;70.00;8.33;;;30.30;1.00;;;;;;6314231;22;20373;-81
2022/06/30 12:17:13;;;;;;;69.70;7.10;;;30.40;1.00;;;;;;6314378;22;20392;-81
2022/06/30 12:19:41;;;;;;;74.00;5.13;;;30.30;1.00;;;;;;6314885;22;20781;-81
2022/06/30 12:22:08;;;;;;;69.27;7.47;;;30.40;1.00;;;;;;6314682;22;20369;-81
2022/06/30 12:24:40;;;;;;;68.23;5.40;;;30.40;1.00;;;;;;6313819;22;20400;-81
2022/06/30 12:27:06;;;;;;;69.30;6.77;;;30.40;1.00;;;;;;6314121;22;20393;-80
2022/06/30 12:29:33;;;;;;;68.17;5.73;;;30.50;1.00;;;;;;6314685;22;20397;-81
2022/06/30 12:32:03;;;;;;;75.07;6.00;;;30.80;1.00;;;;;;6286504;22;20413;-81
2022/06/30 12:34:30;;;;;;;70.23;3.83;;;30.70;1.00;;;;;;6286439;22;20405;-81
2022/06/30 12:37:00;;;;;;;68.73;4.37;;;30.70;1.00;;;;;;6313515;22;20385;-81
2022/06/30 12:39:26;;;;;;;68.90;3.93;;;30.70;1.00;;;;;;6286635;22;20377;-81
2022/06/30 12:42:04;;;;;;;69.60;4.00;;;30.70;1.00;;;;;;6314249;22;20376;-81
2022/06/30 12:44:35;;;;;;;68.20;3.70;;;30.80;1.00;;;;;;6314180;22;20350;-80
2022/06/30 12:47:07;;;;;;;68.30;3.67;;;30.80;1.00;;;;;;6314506;22;20388;-80
2022/06/30 12:49:33;;;;;;;69.40;3.67;;;31.00;1.00;;;;;;6286911;22;20377;-81
2022/06/30 12:51:59;;;;;;;72.17;3.70;;;31.10;1.00;;;;;;6312096;22;20401;-81
2022/06/30 12:54:26;;;;;;;68.10;3.70;;;31.50;1.00;;;;;;6283907;22;20377;-80
2022/06/30 12:57:02;;;;;;;71.30;4.60;;;31.60;1.00;;;;;;6284190;22;20408;-80
2022/06/30 12:59:28;;;;;;;68.27;3.60;;;31.70;1.00;;;;;;6284534;22;20463;-81
2022/06/30 13:01:55;;;;;;;69.40;4.30;;;31.80;1.00;;;;;;6312684;22;20376;-80
2022/06/30 13:04:23;;;;;;;70.37;5.57;;;31.90;1.00;;;;;;6283100;22;20147;-77
2022/06/30 13:06:51;;;;;;;70.20;5.57;;;31.80;1.00;;;;;;6307583;22;20394;-77
2022/06/30 13:09:22;;;;;;;69.63;4.50;;;32.00;1.00;;;;;;6307889;22;20899;-77
2022/06/30 13:11:56;;;;;;;73.10;6.90;;;32.10;1.00;;;;;;6307909;22;20404;-77
2022/06/30 13:14:26;;;;;;;68.30;4.90;;;32.20;1.00;;;;;;6308364;22;20412;-78
2022/06/30 13:16:52;;;;;;;72.23;6.53;;;32.30;1.00;;;;;;6307612;22;20468;-78
2022/06/30 13:19:19;;;;;;;71.37;6.60;;;32.40;1.00;;;;;;6309136;22;20364;-78
2022/06/30 13:21:47;;;;;;;69.70;7.00;;;32.30;1.00;;;;;;6308232;22;20392;-78
2022/06/30 13:24:13;;;;;;;70.17;6.43;;;32.30;1.00;;;;;;6308829;22;20373;-79
2022/06/30 13:26:40;;;;;;;70.87;6.27;;;32.40;1.00;;;;;;6308400;22;20424;-78
2022/06/30 13:29:06;;;;;;;71.30;6.23;;;32.30;1.00;;;;;;6308858;22;20385;-78
2022/06/30 13:31:33;;;;;;;71.00;7.03;;;32.20;1.00;;;;;;6307902;22;20389;-77
2022/06/30 13:34:06;;;;;;;70.20;5.90;;;32.30;1.00;;;;;;6308401;22;20396;-78
2022/06/30 13:36:32;;;;;;;70.63;4.93;;;32.40;1.00;;;;;;6308351;22;20377;-78
2022/06/30 13:38:58;;;;;;;68.27;4.40;;;32.40;1.00;;;;;;6309559;22;20427;-78
2022/06/30 13:41:25;;;;;;;73.37;5.83;;;32.10;1.00;;;;;;6309135;22;20373;-78
2022/06/30 13:43:51;;;;;;;71.13;6.53;;;31.90;1.00;;;;;;6281704;22;20387;-78
2022/06/30 13:46:17;;;;;;;71.50;6.40;;;32.00;1.00;;;;;;6282793;22;20380;-78
2022/06/30 13:48:43;;;;;;;70.47;6.07;;;32.20;1.00;;;;;;6310268;22;20141;-78
2022/06/30 13:51:08;;;;;;;71.50;7.13;;;32.40;1.00;;;;;;6310232;22;20162;-79
2022/06/30 13:53:34;;;;;;;69.87;4.30;;;32.60;1.00;;;;;;6310350;22;20146;-78
2022/06/30 13:56:00;;;;;;;68.87;4.60;;;32.70;1.00;;;;;;6309950;22;20173;-79
2022/06/30 13:58:26;;;;;;;70.47;3.60;;;32.70;1.00;;;;;;6282647;22;20469;-79
2022/06/30 14:00:52;;;;;;;67.97;3.50;;;32.80;1.00;;;;;;6310070;22;20143;-79
2022/06/30 14:03:18;;;;;;;69.87;3.60;;;32.90;1.00;;;;;;6309836;22;20142;-79
2022/06/30 14:05:44;;;;;;;71.50;3.70;;;32.60;1.00;;;;;;6309805;22;20147;-79
2022/06/30 14:08:11;;;;;;;68.37;3.50;;;32.50;1.00;;;;;;6309631;22;20392;-79
2022/06/30 14:10:40;;;;;;;67.60;3.20;;;32.60;1.00;;;;;;6309421;22;20492;-79
2022/06/30 14:13:06;;;;;;;70.73;3.50;;;32.80;1.00;;;;;;6282057;22;20419;-78
2022/06/30 14:15:32;;;;;;;69.27;4.00;;;32.90;1.00;;;;;;6309762;22;20767;-79
2022/06/30 14:17:59;;;;;;;70.50;4.30;;;32.90;1.00;;;;;;6281721;22;20159;-79
2022/06/30 14:20:25;;;;;;;69.63;3.33;;;33.10;1.00;;;;;;6309431;22;20668;-78
2022/06/30 14:22:51;;;;;;;69.47;3.67;;;33.20;1.00;;;;;;6308351;22;20377;-79
2022/06/30 14:25:17;;;;;;;68.20;3.67;;;33.30;1.00;;;;;;6302382;22;20190;-81
2022/06/30 14:27:43;;;;;;;68.17;3.50;;;33.50;1.00;;;;;;6310633;22;20165;-81
2022/06/30 14:30:10;;;;;;;68.60;3.87;;;33.10;1.00;;;;;;6312000;22;20451;-81
2022/06/30 14:32:38;;;;;;;69.30;3.77;;;33.10;1.00;;;;;;6310810;22;20135;-80
2022/06/30 14:35:05;;;;;;;67.70;3.70;;;33.00;1.00;;;;;;6315737;22;20361;-81
2022/06/30 14:37:31;;;;;;;68.00;3.57;;;33.10;1.00;;;;;;6314364;22;20385;-81
2022/06/30 14:39:57;;;;;;;68.30;3.57;;;32.80;1.00;;;;;;6313357;22;20503;-82
2022/06/30 14:45:09;;;;;;;68.60;4.80;;;33.20;1.00;;;;;;6314600;22;20353;-81
2022/06/30 14:47:36;;;;;;;69.13;4.20;;;33.10;1.00;;;;;;6313972;22;20395;-80
2022/06/30 14:50:02;;;;;;;71.30;4.73;;;32.80;1.00;;;;;;6286854;22;20862;-80
2022/06/30 14:52:28;;;;;;;68.23;4.70;;;32.40;1.00;;;;;;6314439;22;20412;-80
2022/06/30 14:54:54;;;;;;;68.00;4.50;;;32.20;1.00;;;;;;6314014;22;20373;-81
2022/06/30 14:57:19;;;;;;;69.50;3.20;;;31.90;1.00;;;;;;6315027;22;20162;-81
2022/06/30 14:59:45;;;;;;;67.90;3.33;;;31.80;1.00;;;;;;6314686;22;20836;-81
2022/06/30 15:02:11;;;;;;;68.27;5.60;;;31.50;1.00;;;;;;6314011;22;20181;-81
2022/06/30 15:04:37;;;;;;;67.37;3.60;;;31.50;1.00;;;;;;6314053;22;20142;-80
2022/06/30 15:07:06;;;;;;;68.10;5.27;;;31.80;1.00;;;;;;6314905;22;20478;-80
2022/06/30 15:09:34;;;;;;;68.07;4.40;;;31.80;1.00;;;;;;6314229;22;20143;-81
2022/06/30 15:12:09;;;;;;;68.00;3.77;;;32.00;1.00;;;;;;6314639;22;20409;-81
2022/06/30 15:14:34;;;;;;;67.97;4.43;;;31.50;1.00;;;;;;6314458;22;20353;-81
2022/06/30 15:17:00;;;;;;;67.50;4.50;;;31.70;1.00;;;;;;6286810;22;20845;-81
2022/06/30 15:19:26;;;;;;;68.57;3.50;;;31.90;1.00;;;;;;6315378;22;20162;-81
2022/06/30 15:24:38;;;;;;;67.90;4.93;;;32.00;1.00;;;;;;6313997;22;20392;-81
2022/06/30 15:27:04;;;;;;;67.87;4.87;;;32.20;1.00;;;;;;6314706;22;20389;-86
2022/06/30 15:29:36;;;;;;;70.83;4.47;;;31.80;1.00;;;;;;6308627;22;20914;-87
2022/06/30 15:32:07;;;;;;;67.40;4.40;;;31.40;1.00;;;;;;6281414;22;20413;-86
2022/06/30 15:34:34;;;;;;;68.97;6.23;;;30.80;1.00;;;;;;6309062;22;20420;-85
2022/06/30 15:37:03;;;;;;;69.53;6.50;;;30.50;1.00;;;;;;6308492;22;20869;-86
2022/06/30 15:39:29;;;;;;;71.40;8.17;;;30.20;1.00;;;;;;6280940;22;20428;-85
2022/06/30 15:42:02;;;;;;;69.97;8.67;;;30.00;1.00;;;;;;6308450;22;20373;-86
2022/06/30 15:44:28;;;;;;;69.80;7.20;;;29.80;1.00;;;;;;6308766;22;20384;-87
2022/06/30 15:46:56;;;;;;;70.00;8.83;;;29.80;1.00;;;;;;6281981;22;20821;-86
2022/06/30 15:49:22;;;;;;;70.90;6.20;;;29.70;1.00;;;;;;6308685;22;20142;-87
2022/06/30 15:51:48;;;;;;;69.63;6.37;;;29.60;1.00;;;;;;6308871;22;20409;-86
2022/06/30 15:54:14;;;;;;;68.80;6.40;;;29.60;1.00;;;;;;6309588;22;20142;-86
2022/06/30 15:56:39;;;;;;;68.43;3.77;;;29.60;1.00;;;;;;6308706;22;20230;-86
2022/06/30 15:59:05;;;;;;;67.40;3.67;;;29.60;1.00;;;;;;6281567;22;20147;-86
2022/06/30 16:01:34;;;;;;;68.40;4.77;;;29.50;1.00;;;;;;6309002;22;20127;-86
2022/06/30 16:04:00;;;;;;;68.87;3.93;;;29.40;1.00;;;;;;6281139;22;20170;-85
2022/06/30 16:06:31;;;;;;;68.20;3.67;;;29.30;1.00;;;;;;6308378;22;20702;-86
2022/06/30 16:08:56;;;;;;;67.70;3.43;;;29.30;1.00;;;;;;6308194;22;20443;-85
2022/06/30 16:11:23;;;;;;;68.97;3.87;;;29.30;1.00;;;;;;6308403;22;20885;-85
2022/06/30 16:13:49;;;;;;;72.27;5.13;;;29.40;1.00;;;;;;6309394;22;20523;-86
2022/06/30 16:16:15;;;;;;;83.53;31.83;;;28.90;1.00;;;;;;6309195;22;20393;-85
2022/06/30 16:18:41;;;;;;;83.67;27.10;;;28.20;1.00;;;;;;6308531;22;20214;-86
2022/06/30 16:21:07;;;;;;;71.47;7.50;;;27.50;1.00;;;;;;6308168;22;20169;-86
2022/06/30 16:23:34;;;;;;;69.00;5.60;;;27.10;1.00;;;;;;6306337;22;20388;-87
2022/06/30 16:26:01;;;;;;;68.07;6.03;;;26.90;9.70;;;;;;6308274;22;20361;-85
2022/06/30 16:28:26;;;;;;;72.07;6.97;;;26.80;26.50;;;;;;6306766;22;20400;-87
2022/06/30 16:30:52;;;;;;;68.27;5.87;;;26.50;42.10;;;;;;6308534;22;20408;-88
2022/06/30 16:33:22;;;;;;;69.40;7.47;;;25.90;55.50;;;;;;6308243;22;20134;-86
2022/06/30 16:35:48;;;;;;;70.37;7.33;;;25.60;65.70;;;;;;6306436;22;20170;-87
2022/06/30 16:38:14;;;;;;;70.67;6.10;;;25.20;83.40;;;;;;6308585;22;20392;-87
2022/06/30 16:40:44;;;;;;;70.77;5.73;;;25.10;84.70;;;;;;6308420;22;20350;-88
2022/06/30 16:43:10;;;;;;;72.10;5.43;;;24.70;89.40;;;;;;6306329;22;20161;-88
2022/06/30 16:45:35;;;;;;;73.90;10.27;;;24.40;92.70;;;;;;6308744;22;20376;-88
2022/06/30 16:48:01;;;;;;;74.40;16.63;;;23.80;99.90;;;;;;6307536;22;20796;-91
2022/06/30 16:50:48;;;;;;;73.07;23.97;;;23.40;99.90;;;;;;6309311;22;20452;-90
2022/06/30 16:53:17;;;;;;;74.23;20.80;;;22.80;99.90;;;;;;6274907;22;20154;-91
2022/06/30 16:56:44;;;;;;;;;;;;;;;;;;;;;
2022/06/30 16:59:25;;;;;;;74.23;15.30;;;22.20;99.90;;;;;;6308013;22;20448;-91
2022/06/30 17:01:56;;;;;;;72.47;16.70;;;22.50;99.90;;;;;;6308463;22;20359;-86
2022/06/30 17:04:51;;;;;;;72.67;15.87;;;22.80;99.90;;;;;;6308008;22;20350;-89
2022/06/30 17:07:32;;;;;;;72.53;14.10;;;23.30;99.90;;;;;;6302783;22;20695;-90
2022/06/30 17:10:03;;;;;;;72.93;13.10;;;23.80;94.80;;;;;;6307984;22;20703;-89
2022/06/30 17:12:31;;;;;;;73.40;20.17;;;24.00;81.10;;;;;;6281618;22;20539;-91
2022/06/30 17:15:00;;;;;;;74.00;19.57;;;23.70;68.30;;;;;;6307735;22;20872;-89
2022/06/30 17:20:58;;;;;;;78.50;26.53;;;22.70;93.40;;;;;;6293776;22;20365;-91
2022/06/30 17:24:27;;;;;;;;;;;;;;;;;;;;;
2022/06/30 17:26:58;;;;;;;74.60;13.53;;;22.20;99.90;;;;;;6163194;23;20433;-91
2022/06/30 17:29:24;;;;;;;72.10;14.47;;;22.00;99.90;;;;;;6162294;23;20377;-90
2022/06/30 17:31:59;;;;;;;70.80;14.07;;;22.10;99.90;;;;;;6265862;22;20446;-91
2022/06/30 17:34:46;;;;;;;71.07;10.83;;;22.30;99.90;;;;;;6282617;22;20471;-91
2022/06/30 17:37:11;;;;;;;71.57;12.97;;;22.30;99.90;;;;;;6308620;22;20396;-91
2022/06/30 17:39:40;;;;;;;70.67;11.37;;;22.10;99.90;;;;;;6308811;22;20353;-90
2022/06/30 17:42:23;;;;;;;70.50;12.70;;;21.90;99.90;;;;;;6280990;22;20145;-91
2022/06/30 17:44:54;;;;;;;68.80;10.27;;;22.00;99.90;;;;;;6272829;22;20377;-90
2022/06/30 17:47:26;;;;;;;70.70;10.13;;;21.70;99.90;;;;;;6280957;22;20450;-90
2022/06/30 17:50:03;;;;;;;;;;;;;;;;;;;;;
2022/06/30 17:52:32;;;;;;;70.30;8.23;;;21.70;99.90;;;;;;6309336;22;20484;-90
2022/06/30 17:55:01;;;;;;;68.20;7.97;;;21.50;95.00;;;;;;6281477;22;20381;-89
2022/06/30 17:57:45;;;;;;;68.17;9.23;;;21.10;96.00;;;;;;6281460;22;20397;-89
2022/06/30 18:00:21;;;;;;;68.00;10.33;;;21.00;96.10;;;;;;6281214;22;20387;-90
2022/06/30 18:02:47;;;;;;;68.27;9.13;;;20.90;94.80;;;;;;6284713;22;20375;-88
2022/06/30 18:05:34;;;;;;;69.10;10.20;;;20.60;99.90;;;;;;6281260;22;20413;-89
2022/06/30 18:13:36;;;;;;;72.07;11.17;;;20.40;99.90;;;;;;6310541;22;20354;-88
2022/06/30 18:16:03;;;;;;;67.40;8.77;;;20.60;99.90;;;;;;6282286;22;20373;-87
2022/06/30 18:18:29;;;;;;;69.57;10.20;;;20.60;96.90;;;;;;6309839;22;20160;-88
2022/06/30 18:20:57;;;;;;;69.40;9.87;;;20.80;97.40;;;;;;6310186;22;20415;-89
2022/06/30 18:23:26;;;;;;;70.00;10.87;;;20.90;96.10;;;;;;6309776;22;20452;-88
2022/06/30 18:25:51;;;;;;;69.57;10.23;;;20.80;90.60;;;;;;6309855;22;20733;-87
2022/06/30 18:28:17;;;;;;;68.60;9.27;;;20.70;91.90;;;;;;6282332;22;20412;-88
2022/06/30 18:30:46;;;;;;;68.17;10.40;;;20.60;91.80;;;;;;6309430;22;20185;-88
2022/06/30 18:33:13;;;;;;;70.10;9.00;;;20.50;91.10;;;;;;6309187;22;20399;-87
2022/06/30 18:35:39;;;;;;;69.43;9.20;;;20.30;94.50;;;;;;6309602;22;20704;-87
2022/06/30 18:38:05;;;;;;;69.03;10.43;;;20.40;93.90;;;;;;6281600;22;20879;-87
2022/06/30 18:40:31;;;;;;;72.47;10.00;;;20.60;92.30;;;;;;6283035;22;20462;-87
2022/06/30 18:42:58;;;;;;;69.10;10.37;;;20.50;93.00;;;;;;6309078;22;20376;-87
2022/06/30 18:45:25;;;;;;;70.87;12.00;;;20.70;91.60;;;;;;6309001;22;20376;-86
2022/06/30 18:47:51;;;;;;;69.50;8.47;;;20.80;89.40;;;;;;6309182;22;20384;-87
2022/06/30 18:50:19;;;;;;;72.10;10.87;;;20.80;88.40;;;;;;6308902;22;20368;-88
2022/06/30 18:52:46;;;;;;;69.73;9.17;;;20.80;88.10;;;;;;6309392;22;20373;-87
2022/06/30 18:55:18;;;;;;;70.07;8.57;;;20.80;85.90;;;;;;6281742;22;20710;-88
2022/06/30 18:57:45;;;;;;;68.67;8.50;;;20.80;86.40;;;;;;6308673;22;20849;-88
2022/06/30 19:00:21;;;;;;;69.73;8.97;;;20.90;87.90;;;;;;6281686;22;20410;-90
2022/06/30 19:02:47;;;;;;;70.73;9.20;;;20.90;90.10;;;;;;6308876;22;20353;-88
2022/06/30 19:05:16;;;;;;;68.43;7.90;;;20.90;89.30;;;;;;6308889;22;20375;-88
2022/06/30 19:07:42;;;;;;;68.00;8.90;;;21.00;88.80;;;;;;6281349;22;20408;-88
2022/06/30 19:10:08;;;;;;;69.10;8.80;;;21.00;90.10;;;;;;6309081;22;20449;-88
2022/06/30 19:12:37;;;;;;;68.03;8.27;;;20.90;89.30;;;;;;6308553;22;20159;-88
2022/06/30 19:15:03;;;;;;;70.10;9.03;;;20.90;90.40;;;;;;6308570;22;20415;-88
2022/06/30 19:17:29;;;;;;;69.17;8.00;;;20.80;91.80;;;;;;6281724;22;20391;-88
2022/06/30 19:19:57;;;;;;;67.90;9.43;;;20.70;92.40;;;;;;6282561;22;20405;-88
2022/06/30 19:22:24;;;;;;;67.37;9.20;;;20.80;92.30;;;;;;6308636;22;20491;-88
2022/06/30 19:24:58;;;;;;;67.00;10.10;;;20.70;93.80;;;;;;6308959;22;20395;-88
2022/06/30 19:27:24;;;;;;;68.20;9.80;;;20.70;92.80;;;;;;6282390;22;20412;-88
2022/06/30 19:29:49;;;;;;;68.57;7.90;;;20.70;92.00;;;;;;6308878;22;20746;-88
2022/06/30 19:32:18;;;;;;;67.70;9.23;;;20.60;94.00;;;;;;6309262;22;20534;-87
2022/06/30 19:34:44;;;;;;;66.70;7.30;;;20.70;92.80;;;;;;6307793;22;20453;-88
2022/06/30 19:37:09;;;;;;;67.17;6.70;;;20.80;91.10;;;;;;6281017;22;20424;-88
2022/06/30 19:39:35;;;;;;;67.23;8.80;;;20.60;91.80;;;;;;6308540;22;20189;-88
2022/06/30 19:44:48;;;;;;;68.50;8.47;;;20.50;92.70;;;;;;6309119;22;20155;-88
2022/06/30 19:47:17;;;;;;;67.40;8.90;;;20.20;95.50;;;;;;6281600;22;20435;-89
2022/06/30 19:49:43;;;;;;;69.83;7.53;;;20.00;98.40;;;;;;6308207;22;20368;-88
2022/06/30 19:52:09;;;;;;;68.77;12.40;;;19.90;99.90;;;;;;6309180;22;20405;-87
2022/06/30 19:54:38;;;;;;;68.67;11.57;;;19.90;99.90;;;;;;6281440;22;20428;-89
2022/06/30 20:20:22;;;;;;;66.10;5.30;;;19.50;99.90;;;;;;6297163;22;20449;-91
2022/06/30 20:22:49;;;;;;;67.70;10.17;;;19.50;99.90;;;;;;6283011;22;20381;-90
2022/06/30 20:25:16;;;;;;;69.70;18.33;;;19.10;99.90;;;;;;6236925;22;20198;-85
2022/06/30 20:27:42;;;;;;;66.77;10.37;;;19.30;99.90;;;;;;6267251;22;20398;-86
2022/06/30 20:30:10;;;;;;;66.00;6.90;;;19.50;99.90;;;;;;6279156;22;20437;-85
2022/06/30 20:32:35;;;;;;;67.90;6.37;;;19.60;99.90;;;;;;6255767;22;20771;-85
2022/06/30 20:35:03;;;;;;;69.17;7.27;;;19.70;99.90;;;;;;6254546;22;20374;-85
2022/06/30 20:37:29;;;;;;;65.47;6.87;;;19.60;99.90;;;;;;6254891;22;20392;-85
2022/06/30 20:39:55;;;;;;;65.77;6.40;;;19.70;99.90;;;;;;6282629;22;20368;-85
2022/06/30 20:42:21;;;;;;;65.27;5.30;;;19.70;99.90;;;;;;6281312;22;20746;-87
2022/06/30 20:44:48;;;;;;;66.80;8.17;;;19.60;99.90;;;;;;6282238;22;20123;-84
2022/06/30 20:47:14;;;;;;;66.07;8.07;;;19.60;99.90;;;;;;6255571;22;20395;-84
2022/06/30 20:52:23;;;;;;;68.57;5.47;;;19.60;99.90;;;;;;6283830;22;20491;-85
2022/06/30 20:54:49;;;;;;;66.30;4.83;;;19.60;99.90;;;;;;6256389;22;20380;-84
2022/06/30 20:57:15;;;;;;;66.50;7.40;;;19.50;99.90;;;;;;6284315;22;20630;-84
2022/06/30 20:59:41;;;;;;;65.80;8.40;;;19.40;99.90;;;;;;6283609;22;20554;-84
2022/06/30 21:02:07;;;;;;;65.30;5.50;;;19.50;99.90;;;;;;6281919;22;20215;-84
2022/06/30 21:04:33;;;;;;;66.87;6.30;;;19.60;99.90;;;;;;6256588;22;20383;-87
2022/06/30 21:06:59;;;;;;;65.03;4.60;;;19.60;99.90;;;;;;6284034;22;20394;-88
2022/06/30 21:09:24;;;;;;;64.80;4.30;;;19.60;99.90;;;;;;6255749;22;20516;-87
2022/06/30 21:11:50;;;;;;;64.70;4.83;;;19.60;99.90;;;;;;6252949;22;20195;-88
2022/06/30 21:14:16;;;;;;;66.77;6.60;;;19.50;99.90;;;;;;6279177;22;20170;-88
2022/06/30 21:16:42;;;;;;;65.83;7.73;;;19.40;99.90;;;;;;6253586;22;20167;-87
2022/06/30 21:19:13;;;;;;;64.97;5.30;;;19.50;99.90;;;;;;6255738;22;20457;-87
2022/06/30 21:21:40;;;;;;;64.90;4.30;;;19.50;99.90;;;;;;6281355;22;20149;-87
2022/06/30 21:24:05;;;;;;;68.60;6.47;;;19.50;99.90;;;;;;6254918;22;20387;-87
2022/06/30 21:26:31;;;;;;;65.97;6.40;;;19.50;99.90;;;;;;6281015;22;20463;-86
2022/06/30 21:28:57;;;;;;;65.03;5.17;;;19.50;99.90;;;;;;6254719;22;20199;-84
2022/06/30 21:31:23;;;;;;;65.10;4.43;;;19.60;99.90;;;;;;6254084;22;20560;-84
2022/06/30 21:33:48;;;;;;;64.90;4.00;;;19.60;99.90;;;;;;6280231;22;20478;-86
2022/06/30 21:36:14;;;;;;;65.23;5.37;;;19.50;99.90;;;;;;6279596;22;20525;-85
2022/06/30 21:38:40;;;;;;;65.87;4.53;;;19.50;99.90;;;;;;6252739;22;20642;-85
2022/06/30 21:41:06;;;;;;;64.70;5.30;;;19.50;99.90;;;;;;6255593;22;20148;-85
2022/06/30 21:43:31;;;;;;;64.93;3.60;;;19.50;99.90;;;;;;6253505;22;20161;-85
2022/06/30 21:45:57;;;;;;;64.77;4.00;;;19.50;99.90;;;;;;6279457;22;20608;-88
2022/06/30 21:48:23;;;;;;;67.20;4.40;;;19.40;99.90;;;;;;6278504;22;20163;-87
2022/06/30 21:50:48;;;;;;;64.30;3.83;;;19.40;99.90;;;;;;6279015;22;20404;-84
2022/06/30 21:53:14;;;;;;;65.40;4.80;;;19.30;99.90;;;;;;6279104;22;20168;-85
2022/06/30 21:55:43;;;;;;;68.93;7.63;;;19.30;99.90;;;;;;6280159;22;20146;-85
2022/06/30 21:58:11;;;;;;;66.57;5.43;;;19.30;99.90;;;;;;6278627;22;20155;-85
2022/06/30 22:00:37;;;;;;;65.13;4.33;;;19.30;99.90;;;;;;6279283;22;20367;-85
2022/06/30 22:03:04;;;;;;;65.87;7.57;;;19.20;99.90;;;;;;6251345;22;20378;-86
2022/06/30 22:05:30;;;;;;;66.00;7.80;;;19.20;99.90;;;;;;6278217;22;20394;-86
2022/06/30 22:07:56;;;;;;;68.07;11.70;;;19.20;99.90;;;;;;6278780;22;20386;-85
2022/06/30 22:10:21;;;;;;;68.27;12.13;;;19.10;99.90;;;;;;6277234;22;20442;-85
2022/06/30 22:12:47;;;;;;;67.10;6.27;;;19.20;99.90;;;;;;6276986;22;20140;-85
2022/06/30 22:15:13;;;;;;;68.03;13.70;;;19.20;99.90;;;;;;6249819;22;20171;-85
2022/06/30 22:17:38;;;;;;;68.20;14.70;;;19.00;99.90;;;;;;6276937;22;20631;-85
2022/06/30 22:20:05;;;;;;;67.97;13.50;;;19.10;99.90;;;;;;6277519;22;20155;-88
2022/06/30 22:22:32;;;;;;;66.97;7.30;;;19.30;99.90;;;;;;6278096;22;20576;-87
2022/06/30 22:24:57;;;;;;;69.37;12.27;;;19.10;99.90;;;;;;6276745;22;20384;-87
2022/06/30 22:27:23;;;;;;;71.50;13.30;;;19.00;99.90;;;;;;6251030;22;20168;-86
2022/06/30 22:29:49;;;;;;;68.40;12.87;;;19.00;99.90;;;;;;6276714;22;20140;-87
2022/06/30 22:32:15;;;;;;;66.63;10.70;;;19.00;99.90;;;;;;6276693;22;20227;-84
2022/06/30 22:34:40;;;;;;;67.67;12.83;;;18.90;99.90;;;;;;6249879;22;20150;-86
2022/06/30 22:37:07;;;;;;;66.50;10.40;;;19.00;99.90;;;;;;6277248;22;20163;-85
2022/06/30 22:39:32;;;;;;;71.70;17.20;;;18.80;99.90;;;;;;6277311;22;20854;-84
2022/06/30 22:41:58;;;;;;;66.87;10.87;;;18.80;99.90;;;;;;6276954;22;20469;-84
2022/06/30 22:44:24;;;;;;;70.17;19.27;;;18.70;99.90;;;;;;6277374;22;20140;-84
2022/06/30 22:46:50;;;;;;;68.67;11.10;;;18.80;99.90;;;;;;6249866;22;20167;-85
2022/06/30 22:49:16;;;;;;;69.40;20.67;;;18.70;99.90;;;;;;6277708;22;20367;-85
2022/06/30 22:51:42;;;;;;;72.73;18.37;;;18.60;99.90;;;;;;6278640;22;20409;-85
2022/06/30 22:54:08;;;;;;;68.77;17.60;;;18.70;99.90;;;;;;6279144;22;20147;-84
2022/06/30 22:56:34;;;;;;;69.57;17.83;;;18.70;99.90;;;;;;6252018;22;20175;-84
2022/06/30 22:59:03;;;;;;;74.73;17.70;;;18.70;99.90;;;;;;6278916;22;20370;-84
2022/06/30 23:01:29;;;;;;;68.40;14.83;;;18.70;99.90;;;;;;6281009;22;20396;-85
2022/06/30 23:03:54;;;;;;;70.20;19.23;;;18.70;99.90;;;;;;6280207;22;20367;-84
2022/06/30 23:06:20;;;;;;;69.87;17.70;;;18.60;99.90;;;;;;6279839;22;20194;-83
2022/06/30 23:08:46;;;;;;;69.20;17.17;;;18.70;99.90;;;;;;6280290;22;20456;-85
2022/06/30 23:11:13;;;;;;;70.87;18.77;;;18.70;99.90;;;;;;6279181;22;20174;-84
2022/06/30 23:13:38;;;;;;;69.17;17.27;;;18.60;99.90;;;;;;6279422;22;20384;-84
2022/06/30 23:16:04;;;;;;;69.40;16.63;;;18.50;99.90;;;;;;6279179;22;20363;-83
2022/06/30 23:18:30;;;;;;;70.77;22.30;;;18.50;99.90;;;;;;6251711;22;20647;-84
2022/06/30 23:20:56;;;;;;;75.33;32.67;;;18.40;99.90;;;;;;6279339;22;20366;-84
2022/06/30 23:23:22;;;;;;;73.33;29.50;;;18.40;99.90;;;;;;6279131;22;20151;-84
2022/06/30 23:25:48;;;;;;;73.33;27.20;;;18.50;99.90;;;;;;6252819;22;20398;-84
2022/06/30 23:28:14;;;;;;;75.53;26.13;;;18.50;99.90;;;;;;6280326;22;20160;-84
2022/06/30 23:30:40;;;;;;;72.27;23.17;;;18.50;99.90;;;;;;6280702;22;20139;-85
2022/06/30 23:33:06;;;;;;;71.70;26.27;;;18.50;99.90;;;;;;6280490;22;20369;-84
2022/06/30 23:35:32;;;;;;;77.90;40.93;;;18.30;99.90;;;;;;6253213;22;20775;-85
2022/06/30 23:37:58;;;;;;;79.57;47.70;;;18.20;99.90;;;;;;6252721;22;20397;-84
2022/06/30 23:40:23;;;;;;;76.17;38.30;;;18.30;99.90;;;;;;6280260;22;20139;-84
2022/06/30 23:42:49;;;;;;;77.53;38.77;;;18.30;99.90;;;;;;6278844;22;20373;-84
2022/06/30 23:45:15;;;;;;;73.80;29.00;;;18.40;99.90;;;;;;6251865;22;20154;-83
2022/06/30 23:47:40;;;;;;;76.83;38.80;;;18.40;99.90;;;;;;6278873;22;20234;-86
2022/06/30 23:50:07;;;;;;;74.00;33.03;;;18.40;99.90;;;;;;6279678;22;20150;-83
2022/06/30 23:52:32;;;;;;;72.67;26.10;;;18.40;99.90;;;;;;6278815;22;20185;-84
2022/06/30 23:54:58;;;;;;;75.47;37.80;;;18.30;99.90;;;;;;6279389;22;20369;-83
2022/06/30 23:57:24;;;;;;;78.93;46.33;;;18.20;99.90;;;;;;6279124;22;20183;-83
2022/06/30 23:59:49;;;;;;;75.93;37.10;;;18.30;99.90;;;;;;6279095;22;20143;-83
